Time;durP1;ratioP1;P1;durP2;ratioP2;P2;SDS_P1;SDS_P2;PMS_P1;PMS_P2;Temp;Humidity;BMP_temperature;BMP_pressure;BME280_temperature;BME280_humidity;BME280_pressure;Samples;Min_cycle;Max_cycle;Signal;HPM_P1;HPM_P2
2021/06/03 00:01:24;;;;;;;;;19.00;19.00;;;;;21.69;62.11;101301.66;5024865;28;51226;-49
2021/06/03 00:03:49;;;;;;;;;20.25;19.50;;;;;21.67;62.28;101289.34;5024861;28;51280;-45
2021/06/03 00:06:15;;;;;;;;;18.50;17.50;;;;;21.67;62.23;101292.84;5021261;28;51367;-44
2021/06/03 00:08:42;;;;;;;;;19.50;19.50;;;;;21.68;62.03;101299.88;5022844;28;51233;-48
2021/06/03 00:11:11;;;;;;;;;22.50;21.00;;;;;21.68;61.58;101297.25;5019267;28;51052;-45
2021/06/03 00:13:39;;;;;;;;;19.50;19.00;;;;;21.71;61.97;101293.72;5021246;28;51296;-48
2021/06/03 00:16:08;;;;;;;;;20.00;19.50;;;;;21.73;61.32;101298.16;5022633;28;53753;-45
2021/06/03 00:18:34;;;;;;;;;22.00;22.00;;;;;21.76;61.81;101294.69;5023576;28;51234;-46
2021/06/03 00:21:00;;;;;;;;;21.50;19.75;;;;;21.77;61.56;101299.09;5021437;28;51208;-47
2021/06/03 00:23:25;;;;;;;;;18.00;17.75;;;;;21.76;61.49;101298.19;5020783;28;51587;-45
2021/06/03 00:25:51;;;;;;;;;20.50;20.50;;;;;21.76;61.42;101297.31;5020800;28;51695;-47
2021/06/03 00:28:17;;;;;;;;;18.75;18.25;;;;;21.77;61.25;101305.22;5023403;28;51196;-45
2021/06/03 00:30:43;;;;;;;;;22.00;21.25;;;;;21.77;61.33;101297.31;5019890;28;51252;-47
2021/06/03 00:33:09;;;;;;;;;24.00;22.50;;;;;21.77;60.93;101312.31;5022572;28;51507;-45
2021/06/03 00:35:34;;;;;;;;;22.00;20.50;;;;;21.76;60.99;101313.19;5021326;28;51895;-44
2021/06/03 00:37:59;;;;;;;;;18.75;18.75;;;;;21.75;60.90;101316.69;5022114;28;51395;-47
2021/06/03 00:40:25;;;;;;;;;22.50;20.50;;;;;21.74;60.60;101312.28;5023718;28;51281;-45
2021/06/03 00:42:51;;;;;;;;;20.25;19.25;;;;;21.70;60.84;101314.00;5017478;28;51241;-46
2021/06/03 00:45:22;;;;;;;;;20.25;19.25;;;;;21.71;60.86;101312.22;5028712;28;52483;-45
2021/06/03 00:47:47;;;;;;;;;18.75;18.75;;;;;21.67;60.93;101313.97;5043395;28;51286;-46
2021/06/03 00:50:20;;;;;;;;;21.75;20.75;;;;;21.67;60.73;101318.41;5031684;28;51259;-46
2021/06/03 00:52:46;;;;;;;;;21.50;19.75;;;;;21.66;60.66;101316.59;5030992;28;51494;-47
2021/06/03 00:55:11;;;;;;;;;17.50;17.50;;;;;21.62;60.86;101321.91;5035303;28;51711;-45
2021/06/03 00:57:37;;;;;;;;;18.50;18.50;;;;;21.61;60.68;101320.13;5034029;28;51268;-49
2021/06/03 01:00:09;;;;;;;;;19.25;18.25;;;;;21.59;60.75;101321.88;5033555;28;51245;-46
2021/06/03 01:02:35;;;;;;;;;19.75;18.75;;;;;21.56;60.82;101327.13;5033827;28;50956;-47
2021/06/03 01:05:00;;;;;;;;;17.25;17.25;;;;;21.55;60.77;101322.75;5033871;28;51048;-48
2021/06/03 01:07:27;;;;;;;;;18.75;18.25;;;;;21.55;60.85;101328.03;5035011;28;51231;-47
2021/06/03 01:10:17;;;;;;;;;19.75;19.25;;;;;21.54;60.97;101334.19;5034693;28;51211;-44
2021/06/03 01:12:57;;;;;;;;;15.50;15.50;;;;;21.47;61.08;101332.38;5033479;28;51120;-46
2021/06/03 01:15:24;;;;;;;;;21.50;20.75;;;;;21.43;61.44;101330.59;5034014;28;52148;-45
2021/06/03 01:17:52;;;;;;;;;18.50;17.75;;;;;21.43;61.28;101335.88;5033636;28;51006;-45
2021/06/03 01:20:19;;;;;;;;;19.75;19.75;;;;;21.40;61.22;101330.59;5034631;28;52640;-45
2021/06/03 01:22:53;;;;;;;;;21.00;20.25;;;;;21.40;61.89;101343.81;5031774;28;51385;-45
2021/06/03 01:25:22;;;;;;;;;20.00;18.50;;;;;21.34;61.48;101340.25;5030385;28;51370;-48
2021/06/03 01:27:48;;;;;;;;;18.00;17.75;;;;;21.31;61.80;101342.88;5031503;28;51260;-45
2021/06/03 01:30:21;;;;;;;;;19.25;18.75;;;;;21.31;61.59;101342.88;5031454;28;51548;-45
2021/06/03 01:32:52;;;;;;;;;18.00;16.75;;;;;21.32;61.38;101347.28;5032781;28;51164;-46
2021/06/03 01:35:27;;;;;;;;;22.00;22.00;;;;;21.33;61.59;101346.38;5031897;28;51961;-46
2021/06/03 01:37:54;;;;;;;;;20.25;19.50;;;;;21.35;61.26;101352.59;5032811;28;51232;-44
2021/06/03 01:40:21;;;;;;;;;20.75;20.00;;;;;21.34;61.22;101348.19;5034622;28;51184;-46
2021/06/03 01:42:48;;;;;;;;;19.00;18.25;;;;;21.35;61.53;101344.66;5034788;28;51462;-45
2021/06/03 01:45:15;;;;;;;;;21.25;19.25;;;;;21.36;61.55;101345.53;5033819;28;51965;-44
2021/06/03 01:47:43;;;;;;;;;20.50;20.50;;;;;21.37;61.66;101347.31;5033881;28;51080;-49
2021/06/03 01:50:10;;;;;;;;;21.25;20.25;;;;;21.34;61.34;101349.94;5034936;28;51126;-45
2021/06/03 01:52:37;;;;;;;;;20.00;19.75;;;;;21.30;61.55;101356.97;5033920;28;51054;-44
2021/06/03 01:55:05;;;;;;;;;19.75;19.25;;;;;21.29;61.88;101356.94;5034015;28;51002;-44
2021/06/03 01:57:31;;;;;;;;;20.50;18.50;;;;;21.28;61.31;101363.09;5034642;28;51219;-44
2021/06/03 01:59:56;;;;;;;;;20.00;19.25;;;;;21.25;61.70;101364.84;5034705;28;51130;-47
2021/06/03 02:02:25;;;;;;;;;19.25;17.50;;;;;21.22;61.47;101364.84;5032635;28;51418;-48
2021/06/03 02:04:51;;;;;;;;;19.75;19.25;;;;;21.21;61.98;101378.03;5032217;28;52024;-47
2021/06/03 02:07:18;;;;;;;;;17.50;17.50;;;;;21.19;62.00;101372.72;5033308;28;51260;-48
2021/06/03 02:09:43;;;;;;;;;18.75;18.00;;;;;21.18;61.61;101380.63;5034315;28;51182;-45
2021/06/03 02:12:12;;;;;;;;;15.50;14.50;;;;;21.17;62.27;101377.09;5034049;28;51223;-46
2021/06/03 02:14:41;;;;;;;;;19.00;18.50;;;;;21.14;62.02;101382.38;5034206;28;51903;-50
2021/06/03 02:17:16;;;;;;;;;19.50;19.25;;;;;21.13;62.15;101377.06;5034499;28;51115;-45
2021/06/03 02:19:50;;;;;;;;;23.00;21.50;;;;;21.11;61.98;101379.69;5034556;28;51115;-44
2021/06/03 02:22:17;;;;;;;;;23.50;21.75;;;;;21.09;62.35;101374.41;5033619;28;50981;-45
2021/06/03 02:24:43;;;;;;;;;20.75;20.25;;;;;21.09;62.25;101379.69;5033524;28;51825;-46
2021/06/03 02:27:09;;;;;;;;;22.25;21.75;;;;;21.09;62.62;101376.19;5032434;28;51285;-48
2021/06/03 02:29:36;;;;;;;;;21.75;21.00;;;;;21.11;63.02;101380.59;5033506;28;51279;-46
2021/06/03 02:32:02;;;;;;;;;21.25;20.25;;;;;21.11;62.03;101382.34;5032098;28;51094;-45
2021/06/03 02:34:28;;;;;;;;;18.75;18.75;;;;;21.10;62.88;101381.44;5049201;28;52857;-45
2021/06/03 02:36:53;;;;;;;;;24.25;23.75;;;;;21.12;62.88;101378.81;5033051;28;50941;-45
2021/06/03 02:39:19;;;;;;;;;24.75;22.25;;;;;21.11;62.70;101379.69;5034021;28;51199;-44
2021/06/03 02:41:44;;;;;;;;;21.00;21.00;;;;;21.11;63.36;101383.25;5033283;28;50894;-45
2021/06/03 02:44:11;;;;;;;;;24.75;22.00;;;;;21.13;62.74;101387.63;5031285;28;51143;-47
2021/06/03 02:46:36;;;;;;;;;21.25;21.00;;;;;21.13;62.63;101387.63;5033762;28;51058;-47
2021/06/03 02:49:02;;;;;;;;;24.00;23.75;;;;;21.11;63.25;101393.81;5032177;28;51576;-46
2021/06/03 02:51:27;;;;;;;;;23.25;21.50;;;;;21.09;63.42;101392.88;5034018;28;51231;-46
2021/06/03 02:53:53;;;;;;;;;19.75;18.50;;;;;21.09;63.64;101392.88;5031411;28;51900;-46
2021/06/03 02:56:19;;;;;;;;;21.50;20.75;;;;;21.10;63.33;101391.16;5033583;28;51326;-45
2021/06/03 02:58:44;;;;;;;;;22.75;22.25;;;;;21.10;63.69;101392.00;5032337;28;51235;-47
2021/06/03 03:01:10;;;;;;;;;21.00;21.00;;;;;21.12;63.08;101392.03;5034050;28;51056;-49
2021/06/03 03:03:35;;;;;;;;;20.75;20.75;;;;;21.15;63.12;101394.69;5032527;28;51729;-47
2021/06/03 03:06:01;;;;;;;;;21.00;20.50;;;;;21.15;63.21;101396.44;5033714;28;50999;-49
2021/06/03 03:08:26;;;;;;;;;18.75;18.25;;;;;21.12;63.25;101399.94;5033723;28;51124;-47
2021/06/03 03:10:55;;;;;;;;;21.50;21.00;;;;;21.12;63.50;101402.59;5030941;28;53890;-46
2021/06/03 03:13:21;;;;;;;;;18.75;18.75;;;;;21.11;63.37;101399.09;5034804;28;54297;-47
2021/06/03 03:15:47;;;;;;;;;23.25;23.00;;;;;21.13;63.15;101406.13;5033278;28;51047;-50
2021/06/03 03:18:13;;;;;;;;;21.50;20.50;;;;;21.13;63.28;101395.56;5032403;28;51072;-49
2021/06/03 03:20:38;;;;;;;;;25.25;24.75;;;;;21.14;63.31;101402.59;5033552;28;51156;-46
2021/06/03 03:23:05;;;;;;;;;21.50;21.00;;;;;21.14;63.29;101408.78;5032279;28;51221;-48
2021/06/03 03:25:31;;;;;;;;;23.00;23.00;;;;;21.15;63.15;101412.28;5032228;28;51239;-49
2021/06/03 03:27:57;;;;;;;;;22.25;20.50;;;;;21.14;63.42;101407.88;5031976;28;51089;-44
2021/06/03 03:30:27;;;;;;;;;18.75;18.50;;;;;21.11;62.91;101404.38;5032329;28;50965;-47
2021/06/03 03:32:53;;;;;;;;;22.75;21.50;;;;;21.09;63.36;101418.44;5030704;28;52157;-48
2021/06/03 03:35:18;;;;;;;;;22.50;22.00;;;;;21.08;63.38;101419.28;5033072;28;51142;-46
2021/06/03 03:37:46;;;;;;;;;24.50;21.25;;;;;21.09;63.11;101418.44;5032544;28;51009;-45
2021/06/03 03:40:14;;;;;;;;;21.00;20.25;;;;;21.10;63.10;101425.47;5032854;28;50980;-46
2021/06/03 03:42:40;;;;;;;;;22.25;20.25;;;;;21.10;63.42;101428.97;5031116;28;51865;-46
2021/06/03 03:45:09;;;;;;;;;19.75;19.75;;;;;21.15;63.31;101428.13;5032780;28;51206;-46
2021/06/03 03:47:34;;;;;;;;;22.25;20.75;;;;;21.17;63.31;101431.69;5033014;28;51153;-45
2021/06/03 03:49:59;;;;;;;;;25.50;24.25;;;;;21.16;62.72;101437.84;5031173;28;50994;-46
2021/06/03 03:52:25;;;;;;;;;20.50;19.50;;;;;21.19;62.97;101435.22;5031098;28;51937;-45
2021/06/03 03:54:50;;;;;;;;;22.00;20.75;;;;;21.21;62.81;101439.63;5032683;28;51183;-48
2021/06/03 03:57:16;;;;;;;;;23.75;22.50;;;;;21.24;62.66;101446.69;5032866;28;51227;-46
2021/06/03 03:59:42;;;;;;;;;21.50;21.00;;;;;21.24;62.53;101446.69;5022156;28;51238;-47
2021/06/03 04:02:07;;;;;;;;;21.75;21.00;;;;;21.20;62.26;101444.91;5031991;28;52925;-50
2021/06/03 04:04:33;;;;;;;;;20.50;20.50;;;;;21.15;62.36;101447.50;5032291;28;50980;-48
2021/06/03 04:06:59;;;;;;;;;20.25;19.50;;;;;21.15;63.14;101452.78;5032809;28;51040;-49
2021/06/03 04:09:24;;;;;;;;;20.50;20.50;;;;;21.11;62.35;101462.47;5031710;28;51288;-44
2021/06/03 04:11:50;;;;;;;;;23.75;23.00;;;;;21.12;62.61;101465.97;5031032;28;51221;-50
2021/06/03 04:14:16;;;;;;;;;20.75;19.75;;;;;21.15;62.75;101467.75;5031318;28;51158;-49
2021/06/03 04:16:41;;;;;;;;;23.75;23.00;;;;;21.19;63.33;101464.25;5032615;28;51081;-49
2021/06/03 04:19:07;;;;;;;;;24.25;22.50;;;;;21.21;63.03;101473.09;5030436;28;50867;-48
2021/06/03 04:21:32;;;;;;;;;29.50;24.75;;;;;21.20;63.47;101477.47;5031726;28;51991;-46
2021/06/03 04:23:59;;;;;;;;;24.75;23.00;;;;;21.20;63.61;101481.88;5032185;28;51007;-49
2021/06/03 04:26:24;;;;;;;;;20.50;20.00;;;;;21.21;63.58;101475.75;5035885;28;51092;-46
2021/06/03 04:28:49;;;;;;;;;21.75;21.75;;;;;21.21;63.47;101476.59;5035177;28;51350;-46
2021/06/03 04:31:15;;;;;;;;;21.50;21.00;;;;;21.23;63.15;101481.91;5034667;28;51191;-52
2021/06/03 04:33:40;;;;;;;;;25.75;23.50;;;;;21.21;63.17;101478.38;5034942;28;51185;-48
2021/06/03 04:36:07;;;;;;;;;26.00;25.75;;;;;21.20;63.47;101481.88;5035239;28;51030;-47
2021/06/03 04:38:33;;;;;;;;;24.50;24.25;;;;;21.17;63.28;101488.00;5034827;28;51201;-45
2021/06/03 04:40:58;;;;;;;;;24.50;23.75;;;;;21.16;64.45;101490.66;5033721;28;52092;-45
2021/06/03 04:43:24;;;;;;;;;27.00;23.75;;;;;21.18;63.93;101488.91;5033597;28;51004;-46
2021/06/03 04:45:49;;;;;;;;;26.25;25.50;;;;;21.20;63.48;101489.78;5035201;28;51243;-49
2021/06/03 04:48:14;;;;;;;;;22.25;22.00;;;;;21.22;63.61;101491.59;5034694;28;51231;-48
2021/06/03 04:50:40;;;;;;;;;25.00;24.50;;;;;21.24;63.71;101491.59;5035106;28;51292;-48
2021/06/03 04:53:06;;;;;;;;;23.25;22.75;;;;;21.23;63.74;101493.38;5033421;28;51108;-50
2021/06/03 04:55:33;;;;;;;;;23.75;23.75;;;;;21.23;63.46;101487.19;5035862;28;51493;-47
2021/06/03 04:58:00;;;;;;;;;24.50;22.50;;;;;21.22;63.58;101485.44;5046430;28;51120;-46
2021/06/03 05:00:31;;;;;;;;;24.50;24.50;;;;;21.22;63.66;101490.72;5033804;28;51922;-45
2021/06/03 05:02:58;;;;;;;;;25.50;24.25;;;;;21.27;63.81;101489.00;5033466;28;51077;-48
2021/06/03 05:05:24;;;;;;;;;22.50;22.00;;;;;21.32;63.63;101481.97;5035301;28;51088;-46
2021/06/03 05:07:50;;;;;;;;;21.25;21.25;;;;;21.37;63.10;101487.31;5035114;28;51157;-44
2021/06/03 05:10:17;;;;;;;;;22.75;22.50;;;;;21.39;63.53;101482.91;5032713;28;51947;-46
2021/06/03 05:12:43;;;;;;;;;23.50;22.50;;;;;21.45;63.29;101484.72;5034969;28;50956;-47
2021/06/03 05:15:09;;;;;;;;;24.75;23.50;;;;;21.46;63.15;101484.75;5032794;28;51478;-48
2021/06/03 05:17:36;;;;;;;;;27.00;25.25;;;;;21.48;63.44;101483.00;5033500;28;51298;-47
2021/06/03 05:20:06;;;;;;;;;22.75;22.00;;;;;21.51;63.10;101487.41;5034768;28;51905;-45
2021/06/03 05:22:32;;;;;;;;;22.50;22.00;;;;;21.51;63.34;101488.31;5034239;28;51080;-47
2021/06/03 05:24:57;;;;;;;;;23.25;22.25;;;;;21.53;62.77;101492.72;5033401;28;51100;-45
2021/06/03 05:27:23;;;;;;;;;23.25;23.00;;;;;21.59;63.05;101491.00;5034824;28;51326;-46
2021/06/03 05:29:48;;;;;;;;;22.25;21.50;;;;;21.66;62.56;101501.59;5034645;28;51108;-44
2021/06/03 05:32:14;;;;;;;;;23.75;23.00;;;;;21.72;62.74;101504.34;5034438;28;51187;-45
2021/06/03 05:34:39;;;;;;;;;25.00;24.25;;;;;21.78;62.34;101509.66;5034363;28;50905;-46
2021/06/03 05:37:05;;;;;;;;;24.75;23.50;;;;;21.81;61.84;101511.44;5032788;28;51254;-45
2021/06/03 05:39:30;;;;;;;;;24.75;23.75;;;;;21.85;62.01;101511.50;5034052;28;52063;-49
2021/06/03 05:41:56;;;;;;;;;24.00;23.50;;;;;21.92;62.21;101508.88;5034477;28;50961;-45
2021/06/03 05:44:21;;;;;;;;;24.50;24.50;;;;;22.00;62.22;101501.88;5033879;28;51098;-47
2021/06/03 05:46:47;;;;;;;;;27.25;26.25;;;;;22.09;62.23;101507.22;5033268;28;50943;-46
2021/06/03 05:49:12;;;;;;;;;24.25;23.75;;;;;22.19;61.44;101507.28;5031232;28;51775;-48
2021/06/03 05:51:41;;;;;;;;;26.50;24.25;;;;;22.28;61.02;101504.66;5028990;28;51179;-44
2021/06/03 05:54:09;;;;;;;;;21.75;21.75;;;;;22.35;61.22;101501.16;5030674;28;51649;-46
2021/06/03 05:56:35;;;;;;;;;26.25;23.75;;;;;22.46;60.74;101506.50;5030678;28;51051;-46
2021/06/03 05:59:00;;;;;;;;;26.00;24.50;;;;;22.57;60.40;101513.63;5030937;28;51947;-48
2021/06/03 06:01:28;;;;;;;;;24.75;24.50;;;;;22.71;60.24;101514.53;5031556;28;51236;-44
2021/06/03 06:06:30;;;;;;;;;27.50;25.25;;;;;22.86;59.78;101511.06;5027640;28;51213;-45
2021/06/03 06:08:58;;;;;;;;;24.75;23.75;;;;;22.98;59.18;101509.31;5032705;28;51986;-46
2021/06/03 06:11:25;;;;;;;;;25.75;23.75;;;;;23.11;59.49;101516.38;5033042;28;50878;-45
2021/06/03 06:13:51;;;;;;;;;26.00;24.75;;;;;23.16;58.72;101519.06;5033056;28;51414;-45
2021/06/03 06:16:17;;;;;;;;;23.25;21.75;;;;;23.17;58.26;101529.66;5031999;28;51009;-46
2021/06/03 06:18:44;;;;;;;;;27.00;24.75;;;;;23.20;58.56;101527.00;5031457;28;52411;-46
2021/06/03 06:21:14;;;;;;;;;22.25;22.25;;;;;23.28;58.21;101524.38;5032122;28;51197;-46
2021/06/03 06:23:39;;;;;;;;;27.75;26.75;;;;;23.39;57.71;101529.69;5032740;28;50977;-44
2021/06/03 06:26:07;;;;;;;;;24.75;24.75;;;;;23.44;57.53;101527.94;5031629;28;51068;-45
2021/06/03 06:28:33;;;;;;;;;24.75;24.25;;;;;23.62;57.06;101528.78;5030996;28;53202;-45
2021/06/03 06:30:58;;;;;;;;;41.75;35.50;;;;;23.80;56.31;101532.31;5030081;28;51072;-48
2021/06/03 06:33:25;;;;;;;;;24.25;24.00;;;;;23.95;56.62;101534.97;5026466;28;51355;-48
2021/06/03 06:35:52;;;;;;;;;26.25;25.25;;;;;24.24;55.83;101539.34;5030300;28;51268;-48
2021/06/03 06:38:18;;;;;;;;;24.00;24.00;;;;;25.07;55.45;101532.75;5028668;28;51888;-43
2021/06/03 06:40:45;;;;;;;;;28.75;25.50;;;;;26.13;53.79;101531.81;5031507;28;52160;-49
2021/06/03 06:43:10;;;;;;;;;26.00;26.00;;;;;26.24;52.15;101524.59;5030784;28;51408;-47
2021/06/03 06:45:37;;;;;;;;;25.00;23.50;;;;;26.15;51.71;101536.22;5032333;28;51192;-49
2021/06/03 06:48:08;;;;;;;;;24.00;24.00;;;;;26.51;51.66;101538.50;5031239;28;51096;-44
2021/06/03 06:50:35;;;;;;;;;25.00;24.75;;;;;28.31;49.41;101539.16;5032124;28;50902;-47
2021/06/03 06:53:01;;;;;;;;;24.00;23.75;;;;;30.13;47.01;101537.47;5032856;28;50831;-46
2021/06/03 06:55:26;;;;;;;;;25.00;25.00;;;;;31.24;44.06;101544.84;5031360;28;51069;-46
2021/06/03 06:57:53;;;;;;;;;25.75;24.50;;;;;31.10;42.79;101547.09;5032668;28;52269;-49
2021/06/03 07:00:19;;;;;;;;;24.00;24.00;;;;;31.17;41.92;101543.28;5032797;28;51131;-47
2021/06/03 07:02:45;;;;;;;;;25.50;24.50;;;;;31.11;42.23;101543.50;5019414;28;50958;-46
2021/06/03 07:05:11;;;;;;;;;28.00;28.00;;;;;30.86;41.54;101545.19;5030221;28;51344;-45
2021/06/03 07:07:37;;;;;;;;;26.50;21.00;;;;;30.42;41.01;101550.06;5032142;28;52292;-45
2021/06/03 07:10:07;;;;;;;;;27.25;26.25;;;;;29.84;41.11;101547.19;5032591;28;50975;-46
2021/06/03 07:12:33;;;;;;;;;24.75;23.00;;;;;29.90;42.06;101546.13;5032551;28;51177;-49
2021/06/03 07:15:00;;;;;;;;;29.25;28.50;;;;;30.81;41.22;101549.81;5032090;28;51012;-43
2021/06/03 07:17:25;;;;;;;;;25.25;24.50;;;;;32.39;39.43;101549.81;5030788;28;52014;-48
2021/06/03 07:19:51;;;;;;;;;22.50;22.50;;;;;33.87;39.49;101550.09;5031188;28;51073;-48
2021/06/03 07:22:16;;;;;;;;;25.00;24.25;;;;;35.01;37.25;101547.53;5032087;28;51025;-50
2021/06/03 07:24:42;;;;;;;;;22.50;22.25;;;;;36.42;36.57;101553.81;5029570;28;51363;-47
2021/06/03 07:27:15;;;;;;;;;58.75;48.50;;;;;38.18;33.98;101547.09;5031208;28;51878;-45
2021/06/03 07:29:42;;;;;;;;;63.25;51.50;;;;;38.13;30.86;101548.34;5031610;28;51163;-46
2021/06/03 07:32:08;;;;;;;;;45.50;38.75;;;;;36.98;29.65;101545.25;5031498;28;51105;-45
2021/06/03 07:34:34;;;;;;;;;24.25;23.75;;;;;36.04;30.53;101544.13;5032295;28;51140;-48
2021/06/03 07:37:00;;;;;;;;;29.50;28.75;;;;;35.24;30.28;101550.94;5014201;28;52237;-48
2021/06/03 07:39:25;;;;;;;;;24.00;22.25;;;;;34.17;31.64;101555.06;5027160;28;51092;-46
2021/06/03 07:41:51;;;;;;;;;20.00;19.50;;;;;33.45;31.83;101553.72;5032469;28;51067;-46
2021/06/03 07:44:18;;;;;;;;;19.50;19.50;;;;;32.73;33.38;101559.28;5031193;28;51135;-45
2021/06/03 07:46:43;;;;;;;;;22.25;21.50;;;;;31.91;33.71;101563.22;5056874;28;52825;-45
2021/06/03 07:49:13;;;;;;;;;20.50;20.00;;;;;31.46;34.33;101570.13;5020740;28;51287;-45
2021/06/03 07:51:39;;;;;;;;;21.67;20.67;;;;;30.70;34.49;101567.97;5027913;28;51194;-47
2021/06/03 07:54:04;;;;;;;;;22.00;21.50;;;;;30.35;35.30;101570.78;5027242;28;51045;-45
2021/06/03 07:56:30;;;;;;;;;19.33;19.00;;;;;30.19;36.66;101570.34;5027577;28;51952;-45
2021/06/03 07:58:55;;;;;;;;;20.25;19.75;;;;;30.17;36.46;101577.56;5029883;28;51122;-47
2021/06/03 08:01:20;;;;;;;;;25.25;23.75;;;;;30.23;36.67;101578.28;5029542;28;51107;-49
2021/06/03 08:03:46;;;;;;;;;20.75;20.75;;;;;30.21;36.62;101573.88;5030765;28;51385;-49
2021/06/03 08:06:11;;;;;;;;;18.75;17.75;;;;;30.10;36.18;101574.16;5029795;28;51207;-47
2021/06/03 08:08:37;;;;;;;;;20.25;19.25;;;;;30.06;36.97;101580.50;5031597;28;50898;-44
2021/06/03 08:11:04;;;;;;;;;20.50;19.50;;;;;30.00;36.95;101587.78;5028724;28;51065;-45
2021/06/03 08:13:30;;;;;;;;;20.75;20.75;;;;;29.99;36.61;101587.81;5027043;28;51318;-46
2021/06/03 08:15:56;;;;;;;;;39.25;33.50;;;;;29.86;37.06;101584.63;5022509;28;52355;-47
2021/06/03 08:18:22;;;;;;;;;19.25;19.25;;;;;29.70;37.00;101585.03;5025425;28;51389;-47
2021/06/03 08:20:52;;;;;;;;;23.25;22.75;;;;;29.68;36.96;101586.84;5024975;28;51244;-44
2021/06/03 08:23:18;;;;;;;;;19.25;19.25;;;;;29.79;37.25;101597.28;5021907;28;51104;-47
2021/06/03 08:25:44;;;;;;;;;18.75;17.75;;;;;29.91;36.92;101592.50;5023728;28;53081;-47
2021/06/03 08:28:10;;;;;;;;;20.50;20.25;;;;;29.97;36.60;101587.88;5022258;28;51483;-45
2021/06/03 08:30:36;;;;;;;;;21.75;21.00;;;;;29.96;36.77;101591.47;5022473;28;51318;-47
2021/06/03 08:33:03;;;;;;;;;21.75;19.75;;;;;30.07;37.17;101591.19;5024583;28;51229;-46
2021/06/03 08:35:28;;;;;;;;;23.75;22.50;;;;;30.19;36.60;101594.44;5024835;28;52810;-45
2021/06/03 08:37:57;;;;;;;;;19.50;19.50;;;;;30.24;36.53;101593.41;5021013;28;51014;-45
2021/06/03 08:40:27;;;;;;;;;19.00;17.75;;;;;30.39;36.61;101588.53;5022594;28;51182;-45
2021/06/03 08:42:55;;;;;;;;;20.75;20.75;;;;;30.51;36.34;101590.84;5019180;28;52545;-45
2021/06/03 08:45:26;;;;;;;;;23.25;22.25;;;;;30.86;35.94;101596.13;5020702;28;52584;-50
2021/06/03 08:47:52;;;;;;;;;17.75;17.50;;;;;31.44;35.93;101586.25;5018939;28;51126;-46
2021/06/03 08:50:18;;;;;;;;;20.00;19.25;;;;;32.38;35.17;101591.06;5024691;28;52523;-47
2021/06/03 08:52:43;;;;;;;;;22.33;21.00;;;;;33.47;33.51;101587.69;5023061;28;51152;-45
2021/06/03 08:56:13;;;;;;;;;16.67;16.67;;;;;33.92;32.48;101588.47;5021339;28;52091;-44
2021/06/03 08:58:03;;;;;;;;;21.75;21.00;;;;;35.15;31.61;101584.66;5020117;28;51532;-49
2021/06/03 09:00:28;;;;;;;;;16.00;16.00;;;;;37.34;30.14;101576.56;5022139;28;51097;-49
2021/06/03 09:02:54;;;;;;;;;31.50;29.50;;;;;39.73;28.56;101583.97;5024429;28;51065;-49
2021/06/03 09:05:19;;;;;;;;;41.25;35.75;;;;;41.32;26.62;101587.97;5020882;28;51181;-46
2021/06/03 09:07:44;;;;;;;;;19.75;19.50;;;;;41.83;24.38;101581.31;5020351;28;51017;-48
2021/06/03 09:10:34;;;;;;;;;16.00;16.00;;;;;43.15;23.83;101590.69;5020525;28;51171;-48
2021/06/03 09:13:19;;;;;;;;;19.25;19.25;;;;;44.17;22.20;101583.69;5023956;28;51081;-46
2021/06/03 09:15:48;;;;;;;;;17.50;17.50;;;;;43.40;21.50;101583.09;5025271;28;53849;-46
2021/06/03 09:18:14;;;;;;;;;15.75;15.25;;;;;42.79;21.67;101584.59;5025906;28;51068;-48
2021/06/03 09:20:44;;;;;;;;;14.50;14.50;;;;;42.82;21.99;101587.94;5022979;28;50973;-47
2021/06/03 09:23:27;;;;;;;;;17.00;16.25;;;;;43.39;21.28;101587.69;5026638;28;51495;-46
2021/06/03 09:25:54;;;;;;;;;18.00;18.00;;;;;43.71;20.02;101580.44;5024589;28;52444;-47
2021/06/03 09:28:31;;;;;;;;;20.75;19.50;;;;;43.08;20.33;101578.53;5026504;28;51145;-44
2021/06/03 09:31:15;;;;;;;;;16.67;15.33;;;;;43.86;20.58;101582.84;5025034;28;52557;-44
2021/06/03 09:33:42;;;;;;;;;16.00;16.00;;;;;45.94;19.92;101570.16;5023868;28;51204;-48
2021/06/03 09:36:32;;;;;;;;;16.00;15.25;;;;;47.14;18.35;101574.72;5024598;28;51161;-45
2021/06/03 09:38:59;;;;;;;;;16.00;15.75;;;;;46.96;17.94;101574.72;5016691;28;51571;-45
2021/06/03 09:41:27;;;;;;;;;18.00;18.00;;;;;45.63;17.55;101579.47;5025578;28;51368;-46
2021/06/03 09:44:12;;;;;;;;;69.67;63.33;;;;;43.97;17.44;101580.00;5026110;28;51073;-44
2021/06/03 09:46:47;;;;;;;;;16.00;15.75;;;;;42.28;18.74;101573.25;5026126;28;51063;-46
2021/06/03 09:49:25;;;;;;;;;16.75;16.75;;;;;41.54;20.09;101578.13;5023348;28;51586;-45
2021/06/03 09:51:57;;;;;;;;;50.00;42.25;;;;;41.14;20.97;101571.16;5024215;28;51065;-45
2021/06/03 09:54:24;;;;;;;;;15.00;14.75;;;;;41.25;20.53;101570.34;5024657;28;51119;-46
2021/06/03 09:56:57;;;;;;;;;14.00;14.00;;;;;42.27;19.74;101571.53;5026571;28;52514;-44
2021/06/03 09:59:30;;;;;;;;;16.75;16.00;;;;;43.55;18.58;101576.31;5020097;28;51144;-45
2021/06/03 10:01:57;;;;;;;;;11.50;10.75;;;;;45.77;17.94;101575.41;5025651;28;51727;-46
2021/06/03 10:04:29;;;;;;;;;15.00;14.00;;;;;46.85;15.46;101573.97;5024759;28;50945;-46
2021/06/03 10:07:03;;;;;;;;;15.50;15.25;;;;;45.81;15.12;101576.84;5024320;28;51170;-45
2021/06/03 10:09:52;;;;;;;;;16.75;15.75;;;;;45.13;16.78;101577.84;5030336;28;51181;-45
2021/06/03 10:12:24;;;;;;;;;16.75;16.25;;;;;45.06;15.60;101577.50;5033433;28;51191;-44
2021/06/03 10:14:54;;;;;;;;;19.25;19.25;;;;;45.78;16.38;101570.75;5033681;28;51032;-45
2021/06/03 10:17:24;;;;;;;;;16.25;15.75;;;;;46.23;15.88;101571.88;5029255;28;55181;-44
2021/06/03 10:19:52;;;;;;;;;15.25;15.25;;;;;45.87;15.93;101568.03;5033138;28;51107;-46
2021/06/03 10:22:35;;;;;;;;;17.00;17.00;;;;;44.30;15.89;101567.03;5032577;28;50968;-45
2021/06/03 10:25:23;;;;;;;;;16.75;16.75;;;;;43.07;16.57;101561.28;5033757;28;51040;-45
2021/06/03 10:27:51;;;;;;;;;14.75;14.75;;;;;41.19;17.93;101567.13;5033632;28;52012;-44
2021/06/03 10:30:19;;;;;;;;;14.25;13.50;;;;;39.68;19.33;101560.81;5033692;28;50855;-46
2021/06/03 10:32:46;;;;;;;;;17.00;16.75;;;;;38.43;19.95;101563.59;5032490;28;51061;-44
2021/06/03 10:35:15;;;;;;;;;16.25;16.00;;;;;37.34;21.85;101562.13;5033759;28;51391;-45
2021/06/03 10:37:42;;;;;;;;;17.25;16.75;;;;;36.39;22.77;101563.81;5033458;28;52686;-44
2021/06/03 10:40:12;;;;;;;;;15.00;14.67;;;;;35.54;23.68;101562.94;5032292;28;51018;-46
2021/06/03 10:42:40;;;;;;;;;16.75;15.75;;;;;34.76;24.32;101564.06;5031445;28;50987;-44
2021/06/03 10:45:06;;;;;;;;;19.25;18.75;;;;;34.15;25.18;101562.34;5032837;28;51188;-44
2021/06/03 10:47:32;;;;;;;;;20.75;19.75;;;;;33.81;26.86;101563.84;5029048;28;51951;-45
2021/06/03 10:50:01;;;;;;;;;18.25;18.25;;;;;33.73;26.60;101560.63;5032141;28;51299;-48
2021/06/03 10:52:27;;;;;;;;;18.00;17.00;;;;;33.68;26.26;101562.63;5026264;28;51285;-45
2021/06/03 10:54:56;;;;;;;;;22.50;21.50;;;;;33.64;26.73;101568.16;5033982;28;51242;-46
2021/06/03 10:57:42;;;;;;;;;18.25;17.25;;;;;33.55;26.98;101568.56;5031889;28;51915;-47
2021/06/03 11:00:26;;;;;;;;;18.50;18.50;;;;;33.37;27.16;101575.56;5032268;28;51055;-45
2021/06/03 11:02:55;;;;;;;;;19.25;17.50;;;;;33.30;27.38;101561.50;5032210;28;51123;-47
2021/06/03 11:05:22;;;;;;;;;20.50;20.25;;;;;33.20;27.89;101568.19;5032977;28;51035;-45
2021/06/03 11:07:47;;;;;;;;;19.00;18.25;;;;;33.19;28.79;101567.31;5032104;28;51166;-46
2021/06/03 11:10:31;;;;;;;;;18.50;17.75;;;;;33.20;28.65;101560.13;5032083;28;51028;-47
2021/06/03 11:13:23;;;;;;;;;19.50;19.50;;;;;33.25;28.12;101566.22;5023428;28;51011;-46
2021/06/03 11:16:10;;;;;;;;;19.75;19.75;;;;;33.32;28.63;101564.13;5029640;28;51172;-47